createdAt,value
2019-02-22T00:02:33.249Z,35.00
2019-02-22T00:05:04.313Z,37.13
2019-02-22T00:07:34.752Z,37.53
2019-02-22T00:10:05.550Z,38.97
2019-02-22T00:12:36.381Z,37.77
2019-02-22T00:15:07.789Z,34.57
2019-02-22T00:17:38.093Z,36.50
2019-02-22T00:20:09.210Z,42.30
2019-02-22T00:22:39.497Z,36.90
2019-02-22T00:25:10.089Z,35.60
2019-02-22T00:27:40.655Z,41.00
2019-02-22T00:30:11.249Z,34.90
2019-02-22T00:32:42.545Z,40.27
2019-02-22T00:35:13.155Z,43.47
2019-02-22T00:37:43.356Z,44.50
2019-02-22T00:40:13.563Z,40.07
2019-02-22T00:42:44.071Z,39.10
2019-02-22T00:45:14.444Z,33.97
2019-02-22T00:47:44.955Z,35.60
2019-02-22T00:50:15.725Z,37.40
2019-02-22T00:52:45.934Z,37.17
2019-02-22T00:55:16.633Z,34.30
2019-02-22T00:57:47.396Z,34.10
2019-02-22T01:00:20.474Z,37.83
2019-02-22T01:02:50.837Z,36.50
2019-02-22T01:05:21.533Z,36.77
2019-02-22T01:07:52.020Z,33.40
2019-02-22T01:10:30.797Z,35.60
2019-02-22T01:12:54.623Z,31.10
2019-02-22T01:15:25.175Z,32.47
2019-02-22T01:17:55.879Z,32.77
2019-02-22T01:20:26.650Z,32.77
2019-02-22T01:22:57.672Z,32.37
2019-02-22T01:25:28.881Z,27.33
2019-02-22T01:27:59.575Z,30.73
2019-02-22T01:30:30.202Z,36.23
2019-02-22T01:33:01.064Z,30.83
2019-02-22T01:35:33.478Z,31.20
2019-02-22T01:38:04.107Z,38.07
2019-02-22T01:40:43.664Z,36.77
2019-02-22T01:43:08.933Z,31.90
2019-02-22T01:45:39.874Z,35.97
2019-02-22T01:48:11.160Z,33.13
2019-02-22T01:50:42.084Z,32.23
2019-02-22T01:53:12.925Z,32.30
2019-02-22T01:55:43.539Z,34.97
2019-02-22T01:58:14.082Z,36.10
2019-02-22T02:00:44.665Z,31.70
2019-02-22T02:03:15.202Z,36.43
2019-02-22T02:05:46.227Z,35.27
2019-02-22T02:08:16.931Z,40.97
2019-02-22T02:10:54.188Z,34.40
2019-02-22T02:13:20.057Z,35.37
2019-02-22T02:15:50.898Z,38.40
2019-02-22T02:18:21.996Z,37.87
2019-02-22T02:20:52.529Z,40.17
2019-02-22T02:23:23.189Z,40.13
2019-02-22T02:25:53.938Z,39.27
2019-02-22T02:28:24.497Z,37.47
2019-02-22T02:30:54.913Z,42.13
2019-02-22T02:33:25.313Z,40.63
2019-02-22T02:35:56.074Z,39.73
2019-02-22T02:38:26.589Z,38.83
2019-02-22T02:41:07.218Z,37.17
2019-02-22T02:43:29.326Z,42.93
2019-02-22T02:45:59.581Z,36.53
2019-02-22T02:48:30.066Z,37.80
2019-02-22T02:51:00.113Z,34.50
2019-02-22T02:53:30.909Z,37.10
2019-02-22T02:56:01.583Z,33.53
2019-02-22T02:58:35.612Z,37.63
2019-02-22T03:01:06.403Z,36.70
2019-02-22T03:03:36.827Z,36.97
2019-02-22T03:06:24.935Z,37.07
2019-02-22T03:08:55.482Z,37.07
2019-02-22T03:11:26.054Z,35.33
2019-02-22T03:13:56.736Z,35.23
2019-02-22T03:16:27.132Z,36.40
2019-02-22T03:18:57.780Z,38.80
2019-02-22T03:21:28.636Z,40.00
2019-02-22T03:23:59.128Z,35.90
2019-02-22T03:26:29.651Z,40.73
2019-02-22T03:29:00.165Z,32.67
2019-02-22T03:31:30.607Z,36.60
2019-02-22T03:34:00.881Z,35.60
2019-02-22T03:36:31.636Z,33.40
2019-02-22T03:39:02.118Z,37.77
2019-02-22T03:41:33.612Z,34.80
2019-02-22T03:44:04.544Z,34.57
2019-02-22T03:46:35.152Z,33.40
2019-02-22T03:49:05.815Z,31.20
2019-02-22T03:51:37.266Z,24.60
2019-02-22T03:54:07.815Z,28.80
2019-02-22T03:56:38.874Z,27.20
2019-02-22T03:59:09.865Z,31.93
2019-02-22T04:01:40.506Z,29.00
2019-02-22T04:04:11.263Z,37.40
2019-02-22T04:06:41.742Z,28.50
2019-02-22T04:09:13.342Z,42.97
2019-02-22T04:11:46.053Z,28.60
2019-02-22T04:14:16.160Z,30.13
2019-02-22T04:16:46.747Z,32.43
2019-02-22T04:19:17.317Z,31.90
2019-02-22T04:21:49.373Z,31.77
2019-02-22T04:24:20.007Z,30.77
2019-02-22T04:26:50.418Z,29.30
2019-02-22T04:29:20.951Z,34.87
2019-02-22T04:31:51.447Z,32.13
2019-02-22T04:34:23.098Z,30.93
2019-02-22T04:36:53.787Z,27.23
2019-02-22T04:39:24.249Z,25.33
2019-02-22T04:41:58.220Z,26.20
2019-02-22T04:44:27.092Z,26.43
2019-02-22T04:46:57.936Z,27.00
2019-02-22T04:49:28.973Z,25.93
2019-02-22T04:52:00.261Z,23.80
2019-02-22T04:54:31.036Z,24.10
2019-02-22T04:57:01.474Z,23.63
2019-02-22T04:59:32.050Z,20.90
2019-02-22T05:02:02.696Z,23.97
2019-02-22T05:04:33.216Z,23.30
2019-02-22T05:07:03.792Z,22.67
2019-02-22T05:09:34.443Z,27.10
2019-02-22T05:12:10.954Z,23.20
2019-02-22T05:14:37.896Z,24.10
2019-02-22T05:17:08.573Z,34.47
2019-02-22T05:19:39.265Z,41.57
2019-02-22T05:22:10.172Z,33.27
2019-02-22T05:24:40.603Z,27.53
2019-02-22T05:27:11.059Z,32.97
2019-02-22T05:29:42.767Z,25.90
2019-02-22T05:32:13.607Z,31.60
2019-02-22T05:34:44.241Z,28.63
2019-02-22T05:37:15.076Z,26.40
2019-02-22T05:39:45.531Z,31.17
2019-02-22T05:42:23.007Z,32.57
2019-02-22T05:44:49.368Z,37.00
2019-02-22T05:47:19.812Z,27.33
2019-02-22T05:49:50.361Z,32.53
2019-02-22T05:52:20.860Z,26.40
2019-02-22T05:54:51.517Z,26.57
2019-02-22T05:57:21.920Z,26.30
2019-02-22T05:59:53.210Z,28.03
2019-02-22T06:02:23.969Z,25.50
2019-02-22T06:04:54.628Z,21.83
2019-02-22T06:07:24.980Z,23.67
2019-02-22T06:09:55.359Z,24.23
2019-02-22T06:12:34.133Z,25.00
2019-02-22T06:14:59.675Z,24.50
2019-02-22T06:17:29.975Z,21.87
2019-02-22T06:20:00.699Z,25.70
2019-02-22T06:22:31.428Z,21.90
2019-02-22T06:25:02.104Z,24.17
2019-02-22T06:27:32.691Z,25.63
2019-02-22T06:30:03.504Z,23.73
2019-02-22T06:32:34.822Z,24.90
2019-02-22T06:35:08.714Z,28.90
2019-02-22T06:37:38.471Z,28.40
2019-02-22T06:40:09.233Z,20.00
2019-02-22T06:45:12.358Z,23.53
2019-02-22T06:47:43.650Z,21.97
2019-02-22T06:50:14.277Z,24.83
2019-02-22T06:52:46.515Z,24.10
2019-02-22T06:55:17.236Z,24.37
2019-02-22T06:57:48.197Z,19.40
2019-02-22T07:00:19.367Z,28.30
2019-02-22T07:02:50.122Z,25.23
2019-02-22T07:05:20.649Z,25.30
2019-02-22T07:07:51.435Z,19.93
2019-02-22T07:10:22.622Z,23.33
2019-02-22T07:13:04.624Z,21.80
2019-02-22T07:15:37.889Z,24.30
2019-02-22T07:18:09.027Z,21.73
2019-02-22T07:20:39.829Z,22.90
2019-02-22T07:23:10.579Z,21.90
2019-02-22T07:25:41.807Z,29.07
2019-02-22T07:28:12.779Z,21.93
2019-02-22T07:30:43.529Z,22.23
2019-02-22T07:33:14.438Z,31.43
2019-02-22T07:35:44.823Z,33.80
2019-02-22T07:38:15.128Z,21.53
2019-02-22T07:40:45.885Z,26.80
2019-02-22T07:43:16.891Z,32.03
2019-02-22T07:45:47.340Z,30.47
2019-02-22T07:48:18.756Z,24.80
2019-02-22T07:50:57.483Z,27.43
2019-02-22T07:53:22.201Z,36.27
2019-02-22T07:55:52.921Z,26.30
2019-02-22T07:58:24.684Z,26.03
2019-02-22T08:00:55.809Z,24.07
2019-02-22T08:03:26.463Z,28.00
2019-02-22T08:05:56.946Z,23.73
2019-02-22T08:08:27.460Z,23.30
2019-02-22T08:10:59.363Z,21.50
2019-02-22T08:13:30.283Z,26.73
2019-02-22T08:16:00.946Z,27.70
2019-02-22T08:18:31.480Z,24.93
2019-02-22T08:21:02.003Z,22.60
2019-02-22T08:23:32.694Z,24.37
2019-02-22T08:26:04.426Z,34.33
2019-02-22T08:28:36.182Z,25.87
2019-02-22T08:31:07.087Z,30.20
2019-02-22T08:33:38.570Z,30.07
2019-02-22T08:36:09.164Z,27.67
2019-02-22T08:38:39.836Z,23.27
2019-02-22T08:41:10.452Z,27.77
2019-02-22T08:43:41.378Z,27.93
2019-02-22T08:46:12.060Z,27.27
2019-02-22T08:48:43.555Z,30.60
2019-02-22T08:51:14.272Z,22.60
2019-02-22T08:53:46.505Z,27.90
2019-02-22T08:56:19.549Z,25.90
2019-02-22T08:58:50.282Z,27.90
2019-02-22T09:01:21.006Z,27.53
2019-02-22T09:03:51.463Z,22.93
2019-02-22T09:06:22.131Z,22.63
2019-02-22T09:08:52.490Z,29.87
2019-02-22T09:11:26.155Z,27.83
2019-02-22T09:13:56.798Z,18.00
2019-02-22T09:16:27.355Z,29.53
2019-02-22T09:18:58.094Z,19.40
2019-02-22T09:21:29.624Z,21.43
2019-02-22T09:24:00.473Z,20.87
2019-02-22T09:26:30.902Z,24.80
2019-02-22T09:29:02.294Z,20.83
2019-02-22T09:31:32.751Z,30.73
2019-02-22T09:34:03.903Z,25.80
2019-02-22T09:36:37.479Z,17.67
2019-02-22T09:39:10.462Z,24.37
2019-02-22T09:41:41.449Z,20.90
2019-02-22T09:44:12.979Z,22.57
2019-02-22T09:46:43.615Z,20.97
2019-02-22T09:49:14.120Z,18.57
2019-02-22T09:51:44.762Z,23.30
2019-02-22T09:54:15.456Z,29.53
2019-02-22T09:56:45.836Z,20.63
2019-02-22T09:59:16.285Z,18.00
2019-02-22T10:01:46.743Z,19.73
2019-02-22T10:04:16.927Z,19.53
2019-02-22T10:06:48.086Z,23.37
2019-02-22T10:09:19.572Z,20.63
2019-02-22T10:11:49.838Z,19.73
2019-02-22T10:14:20.438Z,19.23
2019-02-22T10:16:50.700Z,23.63
2019-02-22T10:19:21.024Z,21.97
2019-02-22T10:21:52.104Z,19.60
2019-02-22T10:24:22.794Z,31.07
2019-02-22T10:26:53.119Z,20.93
2019-02-22T10:29:23.605Z,20.10
2019-02-22T10:31:54.308Z,21.00
2019-02-22T10:34:24.682Z,22.90
2019-02-22T10:36:55.562Z,24.97
2019-02-22T10:39:26.163Z,26.50
2019-02-22T10:41:57.209Z,17.33
2019-02-22T10:44:30.360Z,16.77
2019-02-22T10:47:01.032Z,17.27
2019-02-22T10:49:31.616Z,22.60
2019-02-22T10:52:02.406Z,17.33
2019-02-22T10:54:32.953Z,22.53
2019-02-22T10:57:03.474Z,20.50
2019-02-22T10:59:33.989Z,22.20
2019-02-22T11:02:04.729Z,20.30
2019-02-22T11:04:35.521Z,20.73
2019-02-22T11:07:08.967Z,18.53
2019-02-22T11:09:39.865Z,28.40
2019-02-22T11:12:10.291Z,19.13
2019-02-22T11:14:40.778Z,15.97
2019-02-22T11:17:11.451Z,17.67
2019-02-22T11:19:42.179Z,20.27
2019-02-22T11:22:13.059Z,17.87
2019-02-22T11:24:43.417Z,20.07
2019-02-22T11:27:14.055Z,18.00
2019-02-22T11:29:45.060Z,21.27
2019-02-22T11:32:15.514Z,15.20
2019-02-22T11:34:46.200Z,19.57
2019-02-22T11:37:16.912Z,21.40
2019-02-22T11:39:47.435Z,17.37
2019-02-22T11:42:19.226Z,18.93
2019-02-22T11:44:51.782Z,17.43
2019-02-22T11:47:22.356Z,20.00
2019-02-22T11:49:52.951Z,20.37
2019-02-22T11:52:23.680Z,19.00
2019-02-22T11:54:54.472Z,19.10
2019-02-22T11:57:25.303Z,17.77
2019-02-22T11:59:56.966Z,20.63
2019-02-22T12:02:28.520Z,18.93
2019-02-22T12:04:59.487Z,18.87
2019-02-22T12:07:30.018Z,20.93
2019-02-22T12:10:00.911Z,17.37
2019-02-22T12:12:34.224Z,19.90
2019-02-22T12:15:04.679Z,20.00
2019-02-22T12:17:35.699Z,21.77
2019-02-22T12:20:09.522Z,22.33
2019-02-22T12:22:40.163Z,26.03
2019-02-22T12:25:10.778Z,24.13
2019-02-22T12:27:41.740Z,17.83
2019-02-22T12:30:13.897Z,20.33
2019-02-22T12:32:44.883Z,20.40
2019-02-22T12:35:15.983Z,16.40
2019-02-22T12:37:48.213Z,19.67
2019-02-22T12:40:18.789Z,22.23
2019-02-22T12:42:49.644Z,22.83
2019-02-22T12:45:20.040Z,22.83
2019-02-22T12:47:50.601Z,21.13
2019-02-22T12:50:21.415Z,21.33
2019-02-22T12:52:51.845Z,21.50
2019-02-22T12:55:22.274Z,20.27
2019-02-22T12:57:53.056Z,24.10
2019-02-22T13:00:23.827Z,21.10
2019-02-22T13:03:02.106Z,36.73
2019-02-22T13:05:27.474Z,51.03
2019-02-22T13:07:57.834Z,27.27
2019-02-22T13:10:29.171Z,19.23
2019-02-22T13:13:00.299Z,29.87
2019-02-22T13:15:30.752Z,17.97
2019-02-22T13:18:03.047Z,17.83
2019-02-22T13:20:33.894Z,19.50
2019-02-22T13:23:05.327Z,22.90
2019-02-22T13:25:35.994Z,25.70
2019-02-22T13:28:06.930Z,19.27
2019-02-22T13:30:37.662Z,26.30
2019-02-22T13:33:09.508Z,22.43
2019-02-22T13:35:40.272Z,22.83
2019-02-22T13:38:10.858Z,22.80
2019-02-22T13:40:41.860Z,23.17
2019-02-22T13:43:13.017Z,20.57
2019-02-22T13:45:43.867Z,22.23
2019-02-22T13:48:14.328Z,18.77
2019-02-22T13:50:45.025Z,22.87
2019-02-22T13:53:15.476Z,17.87
2019-02-22T13:55:46.423Z,30.77
2019-02-22T13:58:17.167Z,26.90
2019-02-22T14:00:47.705Z,26.43
2019-02-22T14:03:18.786Z,22.90
2019-02-22T14:05:49.640Z,27.30
2019-02-22T14:08:19.985Z,22.83
2019-02-22T14:10:50.305Z,27.87
2019-02-22T14:13:21.466Z,21.30
2019-02-22T14:15:51.878Z,24.63
2019-02-22T14:18:22.349Z,24.63
2019-02-22T14:20:53.546Z,32.67
2019-02-22T14:23:24.082Z,28.40
2019-02-22T14:25:54.651Z,28.20
2019-02-22T14:28:27.271Z,30.23
2019-02-22T14:30:58.476Z,29.30
2019-02-22T14:33:28.999Z,33.13
2019-02-22T14:35:59.635Z,29.30
2019-02-22T14:38:33.536Z,39.30
2019-02-22T14:41:04.347Z,29.43
2019-02-22T14:43:34.761Z,38.67
2019-02-22T14:46:05.382Z,47.50
2019-02-22T14:48:36.062Z,51.00
2019-02-22T14:51:06.647Z,57.40
2019-02-22T14:53:38.167Z,60.67
2019-02-22T14:56:09.388Z,79.80
2019-02-22T14:58:39.958Z,65.37
2019-02-22T15:01:10.307Z,83.77
2019-02-22T15:03:42.929Z,47.83
2019-02-22T15:06:13.504Z,30.80
2019-02-22T15:08:44.115Z,38.83
2019-02-22T15:11:15.402Z,33.83
2019-02-22T15:13:46.901Z,37.40
2019-02-22T15:16:45.859Z,32.10
2019-02-22T15:19:17.910Z,32.47
2019-02-22T15:21:51.727Z,41.00
2019-02-22T15:24:22.468Z,33.73
2019-02-22T15:26:54.075Z,39.77
2019-02-22T15:29:24.858Z,36.53
2019-02-22T15:31:55.542Z,33.40
2019-02-22T15:34:25.896Z,36.23
2019-02-22T15:36:56.450Z,31.97
2019-02-22T15:39:27.382Z,33.70
2019-02-22T15:41:59.735Z,31.73
2019-02-22T15:44:31.087Z,32.60
2019-02-22T15:47:11.436Z,31.63
2019-02-22T15:49:36.442Z,30.20
2019-02-22T15:52:10.258Z,37.53
2019-02-22T15:54:41.726Z,36.70
2019-02-22T15:57:12.427Z,38.38
2019-02-22T15:59:43.074Z,37.53
2019-02-22T16:02:14.145Z,39.23
2019-02-22T16:04:55.050Z,37.35
2019-02-22T16:07:25.721Z,33.42
2019-02-22T16:09:56.113Z,29.83
2019-02-22T16:12:26.838Z,28.57
2019-02-22T16:14:57.648Z,25.57
2019-02-22T16:17:27.962Z,21.87
2019-02-22T16:19:58.362Z,19.75
2019-02-22T16:22:28.864Z,24.32
2019-02-22T16:24:59.419Z,28.92
2019-02-22T16:27:31.137Z,26.75
2019-02-22T16:30:02.870Z,27.60
2019-02-22T16:32:35.118Z,20.88
2019-02-22T16:35:08.920Z,23.12
2019-02-22T16:37:41.533Z,22.30
2019-02-22T16:40:13.173Z,21.23
2019-02-22T16:42:43.540Z,25.57
2019-02-22T16:45:13.988Z,21.42
2019-02-22T16:47:44.473Z,18.50
2019-02-22T16:50:15.741Z,23.62
2019-02-22T16:52:46.151Z,21.35
2019-02-22T16:55:17.295Z,17.75
2019-02-22T16:57:47.519Z,13.25
2019-02-22T17:00:18.805Z,11.28
2019-02-22T17:02:49.763Z,10.38
2019-02-22T17:05:20.517Z,11.83
2019-02-22T17:07:50.977Z,6.95
2019-02-22T17:10:21.838Z,7.22
2019-02-22T17:12:52.511Z,7.95
2019-02-22T17:15:23.501Z,5.87
2019-02-22T17:17:54.296Z,3.45
2019-02-22T17:20:25.753Z,3.37
2019-02-22T17:22:56.393Z,3.20
2019-02-22T17:25:27.828Z,3.15
2019-02-22T17:27:58.408Z,4.80
2019-02-22T17:30:28.886Z,4.50
2019-02-22T17:32:59.178Z,4.85
2019-02-22T17:35:29.804Z,5.37
2019-02-22T17:38:00.392Z,5.35
2019-02-22T17:40:31.306Z,6.12
2019-02-22T17:43:02.154Z,8.23
2019-02-22T17:45:32.666Z,5.62
2019-02-22T17:48:03.224Z,9.50
2019-02-22T17:50:33.456Z,7.95
2019-02-22T17:53:03.627Z,7.80
2019-02-22T17:55:35.350Z,9.28
2019-02-22T17:58:05.945Z,6.75
2019-02-22T18:00:37.834Z,5.92
2019-02-22T18:03:09.009Z,5.50
2019-02-22T18:05:39.789Z,9.83
2019-02-22T18:08:10.072Z,8.90
2019-02-22T18:10:40.603Z,5.92
2019-02-22T18:13:12.107Z,5.22
2019-02-22T18:15:42.957Z,9.68
2019-02-22T18:18:14.233Z,10.72
2019-02-22T18:20:45.325Z,11.28
2019-02-22T18:23:19.008Z,6.75
2019-02-22T18:25:49.489Z,9.00
2019-02-22T18:28:19.993Z,11.63
2019-02-22T18:30:51.617Z,7.47
2019-02-22T18:33:23.050Z,9.25
2019-02-22T18:35:53.643Z,6.85
2019-02-22T18:38:25.900Z,7.97
2019-02-22T18:40:56.717Z,8.50
2019-02-22T18:43:27.276Z,8.63
2019-02-22T18:45:58.468Z,9.68
2019-02-22T18:48:28.903Z,9.80
2019-02-22T18:50:59.375Z,12.70
2019-02-22T18:53:29.907Z,7.28
2019-02-22T18:56:00.463Z,11.30
2019-02-22T18:58:31.100Z,10.88
2019-02-22T19:01:01.535Z,10.25
2019-02-22T19:03:31.871Z,13.03
2019-02-22T19:06:02.766Z,14.87
2019-02-22T19:08:33.758Z,9.50
2019-02-22T19:11:04.988Z,13.88
2019-02-22T19:13:35.604Z,13.80
2019-02-22T19:16:06.111Z,13.43
2019-02-22T19:18:37.854Z,12.53
2019-02-22T19:21:09.424Z,13.62
2019-02-22T19:23:40.018Z,9.08
2019-02-22T19:26:11.003Z,10.55
2019-02-22T19:28:41.545Z,9.80
2019-02-22T19:31:12.764Z,11.22
2019-02-22T19:33:43.630Z,10.98
2019-02-22T19:36:14.550Z,8.33
2019-02-22T19:38:46.696Z,12.70
2019-02-22T19:41:17.869Z,17.67
2019-02-22T19:43:48.466Z,12.20
2019-02-22T19:46:20.411Z,13.38
2019-02-22T19:48:51.831Z,9.55
2019-02-22T19:51:22.481Z,11.48
2019-02-22T19:53:53.381Z,10.60
2019-02-22T19:56:23.845Z,6.97
2019-02-22T19:58:54.718Z,7.37
2019-02-22T20:01:25.261Z,5.50
2019-02-22T20:03:56.531Z,6.60
2019-02-22T20:06:29.901Z,9.75
2019-02-22T20:09:00.939Z,9.35
2019-02-22T20:11:31.923Z,9.00
2019-02-22T20:14:02.639Z,9.73
2019-02-22T20:16:32.962Z,10.85
2019-02-22T20:19:04.926Z,6.05
2019-02-22T20:21:35.615Z,6.28
2019-02-22T20:24:06.297Z,6.85
2019-02-22T20:26:37.455Z,9.43
2019-02-22T20:29:08.529Z,7.75
2019-02-22T20:31:39.551Z,19.15
2019-02-22T20:34:11.626Z,9.73
2019-02-22T20:36:44.044Z,11.12
2019-02-22T20:39:16.024Z,7.33
2019-02-22T20:41:46.697Z,6.87
2019-02-22T20:44:18.432Z,7.90
2019-02-22T20:46:49.079Z,4.33
2019-02-22T20:49:25.852Z,7.80
2019-02-22T20:51:57.051Z,5.40
2019-02-22T20:54:27.969Z,5.03
2019-02-22T20:56:59.251Z,6.70
2019-02-22T20:59:31.207Z,6.17
2019-02-22T21:02:03.058Z,5.08
2019-02-22T21:04:35.134Z,5.50
2019-02-22T21:07:07.736Z,5.30
2019-02-22T21:09:38.266Z,10.03
2019-02-22T21:12:09.038Z,6.58
2019-02-22T21:14:39.656Z,8.60
2019-02-22T21:17:11.324Z,9.10
2019-02-22T21:19:42.418Z,6.75
2019-02-22T21:22:12.973Z,4.78
2019-02-22T21:24:43.756Z,4.35
2019-02-22T21:27:14.622Z,5.40
2019-02-22T21:29:45.106Z,3.92
2019-02-22T21:32:15.964Z,4.65
2019-02-22T21:34:48.589Z,4.25
2019-02-22T21:37:19.602Z,4.83
2019-02-22T21:39:50.355Z,4.95
2019-02-22T21:42:21.095Z,3.87
2019-02-22T21:44:52.487Z,6.30
2019-02-22T21:47:23.355Z,5.85
2019-02-22T21:49:54.132Z,4.83
2019-02-22T21:52:25.238Z,5.95
2019-02-22T21:54:55.996Z,4.55
2019-02-22T21:57:26.638Z,5.25
2019-02-22T21:59:57.188Z,5.12
2019-02-22T22:02:28.127Z,4.35
2019-02-22T22:05:00.098Z,6.87
2019-02-22T22:07:31.137Z,5.17
2019-02-22T22:10:01.971Z,8.83
2019-02-22T22:12:32.733Z,4.40
2019-02-22T22:15:03.460Z,5.22
2019-02-22T22:17:36.400Z,4.15
2019-02-22T22:20:07.421Z,3.65
2019-02-22T22:22:38.418Z,4.05
2019-02-22T22:25:09.974Z,5.30
2019-02-22T22:27:41.242Z,5.42
2019-02-22T22:30:15.454Z,4.87
2019-02-22T22:32:46.293Z,5.55
2019-02-22T22:35:16.971Z,4.65
2019-02-22T22:37:48.080Z,9.75
2019-02-22T22:40:19.177Z,3.30
2019-02-22T22:42:50.099Z,3.62
2019-02-22T22:45:20.978Z,3.35
2019-02-22T22:47:53.395Z,6.85
2019-02-22T22:50:24.344Z,3.45
2019-02-22T22:52:55.194Z,3.50
2019-02-22T22:55:25.959Z,3.95
2019-02-22T22:57:56.980Z,3.60
2019-02-22T23:01:01.697Z,3.80
2019-02-22T23:03:32.506Z,4.12
2019-02-22T23:06:04.034Z,3.85
2019-02-22T23:08:35.334Z,1.90
2019-02-22T23:11:25.174Z,2.15
2019-02-22T23:13:55.869Z,3.20
2019-02-22T23:16:26.982Z,2.50
2019-02-22T23:19:01.870Z,2.65
2019-02-22T23:21:30.365Z,2.70
2019-02-22T23:24:01.512Z,3.08
2019-02-22T23:26:32.286Z,4.62
2019-02-22T23:29:03.229Z,2.33
2019-02-22T23:31:33.696Z,2.77
2019-02-22T23:34:04.330Z,2.70
2019-02-22T23:36:35.097Z,6.40
2019-02-22T23:39:06.224Z,4.37
2019-02-22T23:41:36.945Z,3.33
2019-02-22T23:44:07.931Z,4.12
2019-02-22T23:46:39.869Z,2.37
2019-02-22T23:49:13.376Z,5.15
2019-02-22T23:51:43.194Z,4.42
2019-02-22T23:54:14.200Z,7.87
2019-02-22T23:56:45.124Z,2.05
2019-02-22T23:59:17.185Z,2.85
